Time;durP1;ratioP1;P1;durP2;ratioP2;P2;SDS_P1;SDS_P2;PMS_P1;PMS_P2;Temp;Humidity;BMP_temperature;BMP_pressure;BME280_temperature;BME280_humidity;BME280_pressure;Samples;Min_cycle;Max_cycle;Signal;HPM_P1;HPM_P2
2024/04/17 00:00:54;;;;;;;19.10;10.80;;;6.00;92.60;;;;;;6782751;26;20504;-62
2024/04/17 00:03:56;;;;;;;13.03;8.57;;;6.00;92.60;;;;;;6777679;26;20452;-63
2024/04/17 00:06:58;;;;;;;13.07;7.80;;;5.90;92.70;;;;;;6776271;26;20504;-64
2024/04/17 00:09:59;;;;;;;12.40;8.33;;;5.90;93.10;;;;;;6775710;26;20499;-63
2024/04/17 00:13:01;;;;;;;12.07;7.60;;;5.80;93.70;;;;;;6776019;26;20467;-64
2024/04/17 00:16:03;;;;;;;9.37;6.17;;;5.70;94.10;;;;;;6775888;26;20475;-65
2024/04/17 00:19:05;;;;;;;8.60;6.23;;;5.70;94.30;;;;;;6775801;26;20468;-64
2024/04/17 00:22:07;;;;;;;9.40;6.50;;;5.80;94.50;;;;;;6775778;26;20757;-65
2024/04/17 00:25:08;;;;;;;6.73;5.23;;;5.70;94.80;;;;;;6775745;26;20463;-64
2024/04/17 00:28:10;;;;;;;8.63;5.87;;;5.80;94.90;;;;;;6776986;26;20463;-64
2024/04/17 00:31:14;;;;;;;9.37;6.10;;;5.80;95.00;;;;;;6776358;26;20540;-63
2024/04/17 00:34:16;;;;;;;8.73;6.27;;;5.80;95.30;;;;;;6775427;26;20455;-63
2024/04/17 00:37:17;;;;;;;9.63;6.03;;;5.90;95.30;;;;;;6775623;26;20551;-63
2024/04/17 00:40:19;;;;;;;8.57;5.50;;;5.90;95.60;;;;;;6775678;26;20835;-62
2024/04/17 00:43:21;;;;;;;7.30;5.80;;;5.90;95.60;;;;;;6775225;26;20455;-62
2024/04/17 00:46:23;;;;;;;8.07;5.40;;;5.90;95.70;;;;;;6775207;26;20452;-65
2024/04/17 00:49:25;;;;;;;6.43;4.70;;;5.90;95.80;;;;;;6776481;26;20455;-65
2024/04/17 00:52:27;;;;;;;7.30;5.10;;;5.90;95.80;;;;;;6775318;26;20987;-66
2024/04/17 00:55:31;;;;;;;10.73;5.60;;;5.90;95.70;;;;;;6775172;26;20459;-66
2024/04/17 00:58:34;;;;;;;7.73;5.73;;;5.90;95.80;;;;;;6775446;26;20475;-65
2024/04/17 01:01:36;;;;;;;10.30;6.40;;;5.90;96.00;;;;;;6775128;26;20488;-63
2024/04/17 01:04:38;;;;;;;9.20;6.37;;;5.90;96.00;;;;;;6775421;26;20483;-62
2024/04/17 01:07:40;;;;;;;8.50;6.33;;;6.00;96.20;;;;;;6775127;26;20500;-64
2024/04/17 01:10:41;;;;;;;9.57;6.80;;;6.00;96.20;;;;;;6771503;26;20507;-65
2024/04/17 01:13:45;;;;;;;9.67;6.77;;;6.10;96.50;;;;;;6775216;26;20443;-62
2024/04/17 01:16:47;;;;;;;10.40;7.23;;;6.10;96.60;;;;;;6775051;26;20911;-63
2024/04/17 01:19:49;;;;;;;9.23;6.17;;;6.20;96.60;;;;;;6775150;26;20492;-63
2024/04/17 01:22:51;;;;;;;9.00;7.03;;;6.30;96.50;;;;;;6774692;26;20503;-63
2024/04/17 01:25:52;;;;;;;10.03;7.03;;;6.30;96.30;;;;;;6774616;26;20562;-63
2024/04/17 01:28:55;;;;;;;9.70;6.83;;;6.40;96.20;;;;;;6774336;26;20507;-62
2024/04/17 01:31:56;;;;;;;12.37;7.67;;;6.40;95.90;;;;;;6776737;26;20536;-62
2024/04/17 01:34:58;;;;;;;10.93;7.60;;;6.40;96.00;;;;;;6775926;26;20455;-62
2024/04/17 01:38:00;;;;;;;10.27;7.07;;;6.40;96.00;;;;;;6773430;26;20558;-62
2024/04/17 01:41:02;;;;;;;12.30;7.83;;;6.50;95.90;;;;;;6773873;26;20459;-62
2024/04/17 01:44:04;;;;;;;12.30;7.47;;;6.50;95.90;;;;;;6775581;26;20512;-65
2024/04/17 01:47:06;;;;;;;11.53;8.63;;;6.50;95.90;;;;;;6775111;26;20456;-62
2024/04/17 01:50:08;;;;;;;10.60;7.70;;;6.50;95.90;;;;;;6774282;26;20471;-62
2024/04/17 01:53:10;;;;;;;14.10;9.13;;;6.60;95.80;;;;;;6774682;26;20468;-63
2024/04/17 01:56:11;;;;;;;11.90;8.87;;;6.60;95.80;;;;;;6772660;26;21084;-64
2024/04/17 01:59:13;;;;;;;13.60;8.57;;;6.60;95.50;;;;;;6783323;26;20447;-62
2024/04/17 02:02:15;;;;;;;11.30;8.07;;;6.60;95.50;;;;;;6783546;26;20456;-62
2024/04/17 02:05:17;;;;;;;12.70;8.40;;;6.60;95.30;;;;;;6774385;26;20551;-62
2024/04/17 02:08:19;;;;;;;11.40;8.13;;;6.60;95.40;;;;;;6774388;26;20488;-63
2024/04/17 02:11:20;;;;;;;11.80;7.93;;;6.60;95.40;;;;;;6775031;26;20436;-62
2024/04/17 02:14:22;;;;;;;11.93;8.07;;;6.60;95.30;;;;;;6777930;26;20455;-63
2024/04/17 02:17:24;;;;;;;9.70;7.57;;;6.60;95.40;;;;;;6779930;26;20459;-61
2024/04/17 02:20:26;;;;;;;10.03;7.73;;;6.60;95.60;;;;;;6778771;26;21061;-62
2024/04/17 02:23:28;;;;;;;11.93;8.37;;;6.50;95.50;;;;;;6783530;26;20467;-62
2024/04/17 02:26:30;;;;;;;10.97;8.00;;;6.60;95.40;;;;;;6786080;26;20456;-62
2024/04/17 02:29:32;;;;;;;9.23;7.00;;;6.60;95.30;;;;;;6786442;26;20447;-62
2024/04/17 02:32:34;;;;;;;10.10;7.40;;;6.60;95.20;;;;;;6786280;26;20447;-64
2024/04/17 02:35:35;;;;;;;9.83;7.10;;;6.60;94.90;;;;;;6789549;26;20502;-60
2024/04/17 02:38:37;;;;;;;9.90;7.20;;;6.60;94.80;;;;;;6784321;26;20825;-66
2024/04/17 02:41:39;;;;;;;9.87;7.90;;;6.60;94.70;;;;;;6785237;26;20483;-66
2024/04/17 02:44:41;;;;;;;10.70;6.50;;;6.50;94.80;;;;;;6780559;26;20561;-63
2024/04/17 02:47:43;;;;;;;7.20;5.63;;;6.60;94.70;;;;;;6778682;26;20830;-65
2024/04/17 02:50:45;;;;;;;7.90;5.83;;;6.50;94.90;;;;;;6777880;26;20456;-63
2024/04/17 02:53:46;;;;;;;7.53;5.63;;;6.50;94.90;;;;;;6777827;26;20532;-65
2024/04/17 02:56:48;;;;;;;6.10;5.17;;;6.50;94.70;;;;;;6777985;26;20543;-65
2024/04/17 02:59:50;;;;;;;6.50;5.40;;;6.50;94.50;;;;;;6778047;26;20507;-63
2024/04/17 03:02:52;;;;;;;6.30;4.70;;;6.50;94.50;;;;;;6777805;26;20467;-64
2024/04/17 03:05:54;;;;;;;8.17;5.30;;;6.50;94.60;;;;;;6775971;26;20497;-60
2024/04/17 03:08:55;;;;;;;5.60;4.90;;;6.50;94.30;;;;;;6777667;26;20475;-61
2024/04/17 03:11:57;;;;;;;6.87;5.30;;;6.50;94.40;;;;;;6777884;26;20506;-64
2024/04/17 03:14:59;;;;;;;13.47;5.50;;;6.50;94.50;;;;;;6777700;26;20526;-64
2024/04/17 03:18:01;;;;;;;6.77;5.33;;;6.50;94.50;;;;;;6775686;26;20455;-61
2024/04/17 03:21:03;;;;;;;6.87;5.80;;;6.50;94.50;;;;;;6777470;26;20443;-61
2024/04/17 03:24:05;;;;;;;7.63;5.50;;;6.40;94.60;;;;;;6777583;26;20471;-63
2024/04/17 03:27:07;;;;;;;6.37;5.37;;;6.40;94.70;;;;;;6777049;26;20507;-63
2024/04/17 03:30:09;;;;;;;8.53;5.60;;;6.40;94.70;;;;;;6778013;26;20447;-65
2024/04/17 03:33:11;;;;;;;7.80;5.80;;;6.50;94.60;;;;;;6775866;26;20451;-66
2024/04/17 03:36:13;;;;;;;8.00;6.13;;;6.40;94.80;;;;;;6777082;26;20534;-66
2024/04/17 03:39:14;;;;;;;9.60;6.37;;;6.40;94.90;;;;;;6776908;26;20448;-62
2024/04/17 03:42:16;;;;;;;9.03;6.47;;;6.40;95.00;;;;;;6776371;26;21061;-65
2024/04/17 03:45:21;;;;;;;9.03;6.27;;;6.40;95.10;;;;;;6776621;26;20935;-66
2024/04/17 03:48:23;;;;;;;9.77;6.83;;;6.40;95.30;;;;;;6777000;26;20496;-66
2024/04/17 03:51:25;;;;;;;9.30;6.63;;;6.40;95.30;;;;;;6776641;26;20459;-65
2024/04/17 03:54:26;;;;;;;9.10;6.73;;;6.40;95.40;;;;;;6776248;26;20447;-63
2024/04/17 03:57:30;;;;;;;10.80;7.67;;;6.40;95.50;;;;;;6779712;26;20547;-63
2024/04/17 04:00:32;;;;;;;11.27;8.33;;;6.40;95.60;;;;;;6778678;26;20455;-63
2024/04/17 04:03:34;;;;;;;11.30;8.50;;;6.40;95.60;;;;;;6779006;26;20451;-61
2024/04/17 04:06:36;;;;;;;11.43;7.90;;;6.30;95.80;;;;;;6781623;26;20968;-61
2024/04/17 04:09:38;;;;;;;11.00;8.27;;;6.40;96.10;;;;;;6783958;26;20459;-62
2024/04/17 04:12:39;;;;;;;10.53;7.93;;;6.40;95.90;;;;;;6777463;26;20794;-61
2024/04/17 04:15:41;;;;;;;13.77;8.27;;;6.40;95.80;;;;;;6777173;26;20967;-62
2024/04/17 04:18:43;;;;;;;13.37;8.83;;;6.30;95.80;;;;;;6777450;26;20957;-62
2024/04/17 04:21:45;;;;;;;13.87;9.37;;;6.30;95.90;;;;;;6784695;26;20463;-61
2024/04/17 04:24:47;;;;;;;13.70;9.43;;;6.30;95.80;;;;;;6780276;26;20444;-62
2024/04/17 04:27:49;;;;;;;14.43;8.93;;;6.30;95.70;;;;;;6775750;26;20516;-62
2024/04/17 04:30:51;;;;;;;12.97;7.77;;;6.40;95.70;;;;;;6776805;26;20459;-62
2024/04/17 04:33:53;;;;;;;15.40;9.13;;;6.40;95.70;;;;;;6777118;26;20983;-65
2024/04/17 04:36:55;;;;;;;13.20;8.93;;;6.40;95.60;;;;;;6776809;26;20451;-65
2024/04/17 04:39:57;;;;;;;13.67;9.63;;;6.40;95.60;;;;;;6783520;26;20545;-63
2024/04/17 04:42:58;;;;;;;13.93;8.47;;;6.40;95.60;;;;;;6782262;26;20541;-63
2024/04/17 04:46:00;;;;;;;12.37;9.37;;;6.40;95.60;;;;;;6779607;26;20633;-62
2024/04/17 04:49:02;;;;;;;12.80;8.90;;;6.40;95.50;;;;;;6779325;26;21022;-62
2024/04/17 04:52:04;;;;;;;14.33;9.47;;;6.30;95.60;;;;;;6777273;26;20443;-62
2024/04/17 04:55:06;;;;;;;11.43;8.57;;;6.30;95.40;;;;;;6776769;26;20820;-62
2024/04/17 04:58:07;;;;;;;15.57;8.53;;;6.30;95.10;;;;;;6776403;26;20589;-62
2024/04/17 05:01:09;;;;;;;9.97;7.17;;;6.30;94.70;;;;;;6776298;26;20451;-64
2024/04/17 05:04:11;;;;;;;14.97;8.20;;;6.30;94.30;;;;;;6774474;26;20504;-64
2024/04/17 05:07:13;;;;;;;12.30;7.17;;;6.20;94.00;;;;;;6773838;26;20471;-63
2024/04/17 05:10:15;;;;;;;11.33;7.97;;;6.20;93.40;;;;;;6775216;26;21037;-64
2024/04/17 05:13:17;;;;;;;11.87;7.33;;;6.30;93.20;;;;;;6775131;26;20531;-62
2024/04/17 05:16:19;;;;;;;11.70;6.80;;;6.30;93.00;;;;;;6775440;26;20562;-64
2024/04/17 05:19:20;;;;;;;8.87;6.10;;;6.20;92.50;;;;;;6775018;26;20459;-64
2024/04/17 05:22:22;;;;;;;10.47;5.50;;;6.30;91.50;;;;;;6776119;26;20519;-64
2024/04/17 05:25:24;;;;;;;5.93;5.33;;;6.20;91.00;;;;;;6775070;26;20467;-64
2024/04/17 05:28:26;;;;;;;9.77;5.60;;;6.20;90.80;;;;;;6773778;26;20523;-62
2024/04/17 05:31:30;;;;;;;8.30;6.07;;;6.20;90.30;;;;;;6777136;26;20495;-61
2024/04/17 05:34:32;;;;;;;9.83;6.30;;;6.20;90.40;;;;;;6779520;26;20504;-65
2024/04/17 05:37:34;;;;;;;6.50;5.37;;;6.30;90.50;;;;;;6775327;26;20499;-62
2024/04/17 05:40:36;;;;;;;8.20;6.00;;;6.30;90.40;;;;;;6775460;26;20455;-64
2024/04/17 05:43:38;;;;;;;6.67;5.27;;;6.30;89.80;;;;;;6774348;26;20497;-64
2024/04/17 05:46:40;;;;;;;9.60;5.67;;;6.30;89.20;;;;;;6774652;26;20764;-64
2024/04/17 05:49:42;;;;;;;6.77;4.93;;;6.40;89.20;;;;;;6774020;26;20439;-64
2024/04/17 05:52:44;;;;;;;9.70;5.27;;;6.40;89.30;;;;;;6773907;26;20523;-65
2024/04/17 05:55:45;;;;;;;11.03;5.20;;;6.40;89.10;;;;;;6772602;26;20451;-65
2024/04/17 05:58:47;;;;;;;5.40;4.57;;;6.50;88.60;;;;;;6773673;26;20459;-65
2024/04/17 06:01:50;;;;;;;7.20;5.13;;;6.60;88.20;;;;;;6773954;26;20494;-65
2024/04/17 06:04:52;;;;;;;13.53;6.27;;;6.80;87.40;;;;;;6771917;26;20802;-65
2024/04/17 06:07:54;;;;;;;7.33;4.80;;;6.90;87.60;;;;;;6773085;26;20451;-64
2024/04/17 06:10:56;;;;;;;14.60;5.20;;;7.10;87.80;;;;;;6773159;26;20893;-64
2024/04/17 06:13:58;;;;;;;7.93;4.60;;;7.20;86.40;;;;;;6772964;26;20503;-64
2024/04/17 06:17:00;;;;;;;5.50;4.37;;;7.40;85.90;;;;;;6773226;26;20526;-64
2024/04/17 06:20:02;;;;;;;10.90;5.97;;;7.50;84.80;;;;;;6772812;26;20507;-64
2024/04/17 06:23:04;;;;;;;6.70;4.90;;;7.60;84.20;;;;;;6772833;26;20459;-64
2024/04/17 06:26:06;;;;;;;6.70;4.70;;;7.90;83.30;;;;;;6772883;26;20554;-65
2024/04/17 06:29:08;;;;;;;9.20;4.80;;;7.90;82.30;;;;;;6773062;26;20456;-65
2024/04/17 06:32:10;;;;;;;5.43;4.40;;;7.90;81.80;;;;;;6771446;26;20542;-65
2024/04/17 06:35:12;;;;;;;8.80;5.40;;;7.90;82.20;;;;;;6773472;26;20820;-66
2024/04/17 06:38:14;;;;;;;7.20;4.87;;;7.80;82.30;;;;;;6776244;26;21013;-65
2024/04/17 06:41:15;;;;;;;8.63;5.03;;;7.80;82.90;;;;;;6772628;26;20834;-65
2024/04/17 06:44:17;;;;;;;11.33;4.83;;;7.80;80.80;;;;;;6772868;26;20491;-66
2024/04/17 06:47:20;;;;;;;10.97;5.70;;;7.70;80.80;;;;;;6772643;26;20471;-66
2024/04/17 06:50:22;;;;;;;6.33;4.90;;;7.80;80.90;;;;;;6773105;26;20562;-65
2024/04/17 06:53:24;;;;;;;9.23;5.40;;;8.00;79.80;;;;;;6774775;26;20544;-66
2024/04/17 06:56:28;;;;;;;5.90;5.30;;;8.00;78.30;;;;;;6776866;26;20464;-65
2024/04/17 06:59:29;;;;;;;7.17;5.10;;;8.00;77.90;;;;;;6774834;26;20451;-65
2024/04/17 07:02:32;;;;;;;8.47;5.00;;;7.90;78.90;;;;;;6773034;26;20544;-67
2024/04/17 07:05:38;;;;;;;11.10;5.30;;;7.70;78.60;;;;;;6772136;26;20475;-64
2024/04/17 07:08:40;;;;;;;10.47;5.63;;;7.50;80.40;;;;;;6775664;26;20834;-65
2024/04/17 07:11:42;;;;;;;9.73;5.20;;;7.50;80.50;;;;;;6774741;26;20503;-65
2024/04/17 07:14:44;;;;;;;15.83;5.23;;;7.50;80.50;;;;;;6776706;26;20510;-64
2024/04/17 07:17:45;;;;;;;11.00;5.60;;;7.50;79.90;;;;;;6776605;26;20926;-64
2024/04/17 07:20:50;;;;;;;6.70;3.60;;;7.60;78.40;;;;;;6776508;26;20447;-62
2024/04/17 07:23:52;;;;;;;5.73;3.60;;;7.60;77.40;;;;;;6776772;26;20464;-63
2024/04/17 07:26:55;;;;;;;5.53;3.40;;;7.60;77.90;;;;;;6777466;26;20462;-65
2024/04/17 07:29:57;;;;;;;8.00;4.50;;;7.60;77.90;;;;;;6776704;26;20786;-64
2024/04/17 07:32:59;;;;;;;6.77;4.30;;;7.70;78.50;;;;;;6777236;26;20451;-64
2024/04/17 07:36:01;;;;;;;5.17;4.17;;;7.90;77.10;;;;;;6774713;26;20618;-63
2024/04/17 07:39:03;;;;;;;8.47;3.67;;;8.00;75.90;;;;;;6776064;26;20843;-64
2024/04/17 07:42:05;;;;;;;9.97;3.90;;;8.10;74.20;;;;;;6776192;26;20770;-64
2024/04/17 07:45:07;;;;;;;3.23;2.43;;;8.30;75.60;;;;;;6776201;26;20471;-66
2024/04/17 07:48:09;;;;;;;6.80;3.57;;;8.60;71.60;;;;;;6776069;26;20923;-62
2024/04/17 07:51:11;;;;;;;8.50;3.33;;;8.80;71.50;;;;;;6776662;26;20818;-62
2024/04/17 07:54:12;;;;;;;7.20;2.80;;;9.00;67.70;;;;;;6776888;26;20664;-63
2024/04/17 07:57:14;;;;;;;4.20;2.90;;;9.00;67.20;;;;;;6777041;26;20487;-63
2024/04/17 08:00:16;;;;;;;6.27;3.10;;;9.10;69.30;;;;;;6776953;26;20455;-62
2024/04/17 08:03:18;;;;;;;2.90;2.43;;;9.10;68.90;;;;;;6776447;26;20491;-62
2024/04/17 08:06:21;;;;;;;5.27;2.63;;;9.10;66.20;;;;;;6776440;26;20552;-63
2024/04/17 08:09:22;;;;;;;4.23;2.43;;;9.20;66.90;;;;;;6776101;26;20519;-64
2024/04/17 08:12:24;;;;;;;2.47;2.00;;;9.20;65.40;;;;;;6776335;26;20511;-63
2024/04/17 08:15:26;;;;;;;4.53;2.50;;;9.30;65.10;;;;;;6776150;26;20548;-63
2024/04/17 08:18:28;;;;;;;3.50;1.97;;;9.40;64.20;;;;;;6775062;26;20456;-65
2024/04/17 08:21:31;;;;;;;5.20;2.10;;;9.30;63.50;;;;;;6776056;26;20456;-63
2024/04/17 08:24:32;;;;;;;4.70;2.60;;;9.30;62.40;;;;;;6777340;26;20558;-63
2024/04/17 08:27:34;;;;;;;14.97;3.10;;;9.30;64.00;;;;;;6784597;26;20511;-64
2024/04/17 08:30:36;;;;;;;4.03;2.03;;;9.30;63.20;;;;;;6775962;26;20459;-64
2024/04/17 08:33:38;;;;;;;2.77;2.03;;;9.40;61.40;;;;;;6776418;26;20939;-65
2024/04/17 08:36:40;;;;;;;6.90;2.47;;;9.30;61.10;;;;;;6776132;26;20512;-72
2024/04/17 08:39:42;;;;;;;4.67;1.90;;;9.30;60.90;;;;;;6774274;26;21037;-65
2024/04/17 08:42:48;;;;;;;2.77;2.30;;;9.20;61.30;;;;;;6775819;26;20825;-64
2024/04/17 08:45:55;;;;;;;1.70;1.60;;;9.20;61.90;;;;;;6776616;26;20497;-63
2024/04/17 08:48:58;;;;;;;3.63;2.03;;;9.30;57.90;;;;;;6776044;26;20831;-63
2024/04/17 08:52:03;;;;;;;4.03;2.30;;;9.30;58.70;;;;;;6775934;26;20549;-61
2024/04/17 08:55:06;;;;;;;3.23;2.10;;;9.30;57.90;;;;;;6776400;26;20975;-62
2024/04/17 08:58:08;;;;;;;2.30;2.10;;;9.30;57.90;;;;;;6776359;26;20576;-62
2024/04/17 09:01:11;;;;;;;3.77;2.00;;;9.50;57.90;;;;;;6776334;26;20459;-61
2024/04/17 09:04:13;;;;;;;2.57;2.17;;;9.60;58.50;;;;;;6776636;26;20456;-62
2024/04/17 09:07:15;;;;;;;3.10;2.10;;;9.50;56.60;;;;;;6777325;26;20467;-63
2024/04/17 09:10:18;;;;;;;4.03;1.80;;;9.50;57.40;;;;;;6777289;26;20515;-61
2024/04/17 09:13:20;;;;;;;2.50;2.13;;;9.50;56.50;;;;;;6775703;26;20467;-62
2024/04/17 09:16:22;;;;;;;3.40;2.03;;;9.50;57.30;;;;;;6775804;26;20443;-62
2024/04/17 09:19:23;;;;;;;7.00;2.30;;;9.80;57.20;;;;;;6775406;26;20459;-62
2024/04/17 09:22:25;;;;;;;2.20;2.00;;;9.80;54.80;;;;;;6774205;26;20562;-62
2024/04/17 09:25:27;;;;;;;3.33;2.13;;;9.80;54.50;;;;;;6775444;26;20804;-62
2024/04/17 09:28:32;;;;;;;2.40;2.10;;;9.90;52.90;;;;;;6775562;26;20444;-62
2024/04/17 09:31:34;;;;;;;4.63;2.20;;;10.20;55.20;;;;;;6773920;26;20504;-62
2024/04/17 09:34:36;;;;;;;3.53;2.00;;;10.50;54.60;;;;;;6775117;26;20757;-62
2024/04/17 09:37:40;;;;;;;2.70;2.27;;;10.70;51.50;;;;;;6774900;26;20497;-64
2024/04/17 09:40:46;;;;;;;3.73;2.23;;;10.90;51.50;;;;;;6777243;26;20538;-64
2024/04/17 09:43:51;;;;;;;2.87;2.10;;;11.00;52.00;;;;;;6778069;26;20444;-63
2024/04/17 09:46:56;;;;;;;2.90;1.80;;;11.10;52.00;;;;;;6775505;26;20504;-64
2024/04/17 09:50:03;;;;;;;3.50;2.13;;;11.00;51.00;;;;;;6776929;26;20511;-63
2024/04/17 09:53:08;;;;;;;8.50;2.50;;;11.10;50.80;;;;;;6773899;26;20447;-64
2024/04/17 09:56:25;;;;;;;2.53;2.10;;;11.20;49.80;;;;;;6775013;26;20471;-64
2024/04/17 09:59:28;;;;;;;3.00;2.13;;;11.10;50.60;;;;;;6774412;26;20448;-65
2024/04/17 10:02:30;;;;;;;3.63;2.07;;;11.20;49.10;;;;;;6774472;26;20542;-64
2024/04/17 10:05:33;;;;;;;3.80;2.20;;;10.90;48.00;;;;;;6774713;26;20494;-63
2024/04/17 10:08:36;;;;;;;3.80;2.20;;;10.70;50.50;;;;;;6774540;26;20774;-63
2024/04/17 10:11:38;;;;;;;3.30;1.90;;;10.80;50.10;;;;;;6772036;26;20499;-63
2024/04/17 10:14:40;;;;;;;2.53;2.33;;;11.00;46.90;;;;;;6772765;26;20452;-62
2024/04/17 10:17:42;;;;;;;3.10;2.00;;;11.20;46.20;;;;;;6774612;26;20455;-64
2024/04/17 10:20:45;;;;;;;4.13;2.30;;;11.30;46.00;;;;;;6774535;26;20986;-63
2024/04/17 10:23:59;;;;;;;4.93;2.80;;;11.50;47.60;;;;;;6774262;26;20980;-62
2024/04/17 10:27:04;;;;;;;3.00;2.70;;;11.70;49.10;;;;;;6772885;26;20509;-64
2024/04/17 10:30:10;;;;;;;3.77;2.60;;;11.40;51.50;;;;;;6774522;26;20919;-61
2024/04/17 10:33:30;;;;;;;3.30;2.77;;;11.10;51.80;;;;;;6774620;26;20635;-64
2024/04/17 10:36:36;;;;;;;4.07;2.60;;;11.10;52.30;;;;;;6774728;26;20805;-64
2024/04/17 10:39:39;;;;;;;4.53;2.80;;;11.10;51.60;;;;;;6773697;26;20526;-63
2024/04/17 10:42:41;;;;;;;3.40;2.67;;;11.10;51.20;;;;;;6776614;26;20523;-62
2024/04/17 10:45:46;;;;;;;3.03;2.73;;;11.20;51.20;;;;;;6777308;26;20451;-64
2024/04/17 10:48:50;;;;;;;2.77;2.57;;;11.30;50.00;;;;;;6782962;26;20463;-64
2024/04/17 10:51:57;;;;;;;4.60;2.87;;;11.60;48.80;;;;;;6789533;26;20459;-62
2024/04/17 10:55:00;;;;;;;4.07;2.73;;;11.80;49.10;;;;;;6790770;26;20447;-63
2024/04/17 10:58:04;;;;;;;2.67;2.47;;;11.90;48.90;;;;;;6788372;26;20471;-64
2024/04/17 11:01:06;;;;;;;6.30;2.67;;;11.90;46.70;;;;;;6792353;26;20585;-62
2024/04/17 11:04:10;;;;;;;4.60;2.60;;;11.90;48.20;;;;;;6788997;26;20459;-63
2024/04/17 11:07:13;;;;;;;2.83;2.37;;;11.80;46.20;;;;;;6786061;26;20512;-62
2024/04/17 11:10:16;;;;;;;4.57;2.57;;;11.70;46.70;;;;;;6785882;26;20451;-64
2024/04/17 11:13:18;;;;;;;2.40;2.20;;;11.70;45.70;;;;;;6780992;26;20519;-63
2024/04/17 11:16:20;;;;;;;4.20;2.70;;;11.90;46.40;;;;;;6782755;26;20499;-62
2024/04/17 11:19:22;;;;;;;2.83;2.53;;;12.10;44.80;;;;;;6780182;26;20435;-62
2024/04/17 11:22:24;;;;;;;4.10;3.17;;;12.20;47.30;;;;;;6779093;26;20502;-62
2024/04/17 11:25:26;;;;;;;2.80;2.60;;;12.30;46.00;;;;;;6778114;26;20459;-63
2024/04/17 11:28:28;;;;;;;7.07;3.53;;;12.50;45.00;;;;;;6778882;26;20503;-64
2024/04/17 11:31:30;;;;;;;4.77;3.47;;;12.40;47.30;;;;;;6779806;26;20454;-63
2024/04/17 11:34:32;;;;;;;7.20;3.50;;;12.10;47.50;;;;;;6781044;26;20927;-65
2024/04/17 11:37:34;;;;;;;5.40;3.70;;;12.00;49.50;;;;;;6776730;26;20462;-64
2024/04/17 11:40:36;;;;;;;7.40;3.70;;;12.00;50.50;;;;;;6779469;26;20447;-64
2024/04/17 11:43:38;;;;;;;4.80;3.50;;;12.10;51.60;;;;;;6781944;26;20455;-65
2024/04/17 11:46:41;;;;;;;6.10;3.87;;;12.10;50.80;;;;;;6784630;26;20459;-64
2024/04/17 11:49:43;;;;;;;7.17;4.03;;;12.20;49.40;;;;;;6779281;26;20506;-64
2024/04/17 11:52:45;;;;;;;4.67;3.90;;;12.30;50.50;;;;;;6777737;26;20507;-66
2024/04/17 11:55:47;;;;;;;5.37;4.30;;;12.50;48.60;;;;;;6776311;26;20523;-63
2024/04/17 11:58:49;;;;;;;3.70;3.40;;;12.70;48.20;;;;;;6776630;26;20451;-64
2024/04/17 12:01:51;;;;;;;6.30;3.87;;;13.10;46.50;;;;;;6776593;26;20455;-65
2024/04/17 12:04:53;;;;;;;8.20;4.43;;;13.20;45.20;;;;;;6777187;26;20873;-65
2024/04/17 12:07:57;;;;;;;4.40;3.90;;;13.20;48.00;;;;;;6776863;26;20963;-64
2024/04/17 12:10:59;;;;;;;6.07;3.87;;;13.20;45.70;;;;;;6776552;26;20451;-65
2024/04/17 12:14:01;;;;;;;5.60;3.87;;;13.20;44.30;;;;;;6774948;26;20526;-64
2024/04/17 12:17:03;;;;;;;6.67;3.23;;;13.10;46.40;;;;;;6776541;26;20858;-64
2024/04/17 12:20:06;;;;;;;5.97;3.80;;;12.90;45.00;;;;;;6775852;26;20475;-65
2024/04/17 12:23:07;;;;;;;5.73;3.77;;;12.70;45.70;;;;;;6775960;26;21014;-64
2024/04/17 12:29:30;;;;;;;5.73;3.60;;;12.70;45.30;;;;;;6777526;26;20521;-65
2024/04/17 12:32:32;;;;;;;6.53;3.70;;;12.60;45.70;;;;;;6785036;26;20495;-63
2024/04/17 12:35:35;;;;;;;7.60;3.70;;;12.70;46.50;;;;;;6776004;26;20443;-64
2024/04/17 12:38:37;;;;;;;5.50;3.53;;;13.00;45.40;;;;;;6775961;26;20963;-64
2024/04/17 12:41:39;;;;;;;3.70;3.40;;;13.20;43.60;;;;;;6776395;26;20564;-64
2024/04/17 12:44:41;;;;;;;4.10;3.67;;;13.60;43.80;;;;;;6776448;26;20500;-64
2024/04/17 12:47:42;;;;;;;5.43;3.70;;;13.60;43.30;;;;;;6776128;26;20494;-63
2024/04/17 12:50:47;;;;;;;6.80;3.60;;;13.70;42.70;;;;;;6780768;26;20459;-64
2024/04/17 12:53:49;;;;;;;5.63;4.20;;;14.20;42.30;;;;;;6779669;26;20447;-63
2024/04/17 12:56:51;;;;;;;3.63;3.33;;;14.20;44.30;;;;;;6775636;26;20530;-63
2024/04/17 12:59:53;;;;;;;4.90;4.00;;;14.10;43.50;;;;;;6775990;26;20829;-63
2024/04/17 13:02:54;;;;;;;5.33;4.90;;;13.80;45.00;;;;;;6775693;26;20471;-63
2024/04/17 13:06:01;;;;;;;4.23;3.83;;;13.50;45.30;;;;;;6777820;26;20803;-63
2024/04/17 13:09:03;;;;;;;3.83;3.50;;;13.20;47.70;;;;;;6776490;26;20443;-62
2024/04/17 13:12:05;;;;;;;6.43;4.30;;;13.30;47.90;;;;;;6775480;26;20455;-64
2024/04/17 13:15:07;;;;;;;4.50;3.53;;;13.10;46.80;;;;;;6775387;26;20511;-63
2024/04/17 13:18:08;;;;;;;4.07;3.67;;;12.70;47.90;;;;;;6775377;26;20444;-63
2024/04/17 13:21:10;;;;;;;9.03;4.00;;;12.00;52.30;;;;;;6775364;26;21051;-64
2024/04/17 13:24:12;;;;;;;4.40;3.20;;;11.70;53.60;;;;;;6775385;26;20447;-63
2024/04/17 13:27:14;;;;;;;4.70;3.60;;;11.70;56.40;;;;;;6775432;26;20498;-66
2024/04/17 13:30:16;;;;;;;3.27;2.97;;;11.80;57.60;;;;;;6775248;26;20975;-65
2024/04/17 13:33:18;;;;;;;7.40;2.83;;;11.80;58.70;;;;;;6775932;26;20519;-65
2024/04/17 13:36:20;;;;;;;5.60;2.50;;;12.20;55.60;;;;;;6776138;26;21034;-63
2024/04/17 13:39:22;;;;;;;3.63;2.10;;;12.20;52.80;;;;;;6774746;26;20456;-64
2024/04/17 13:42:24;;;;;;;2.03;1.93;;;12.40;52.50;;;;;;6774982;26;20521;-64
2024/04/17 13:45:30;;;;;;;2.30;2.00;;;12.40;52.70;;;;;;6779169;26;20447;-65
2024/04/17 13:48:33;;;;;;;3.70;2.07;;;12.50;52.90;;;;;;6778872;26;20492;-63
2024/04/17 13:51:35;;;;;;;3.00;2.10;;;12.50;51.60;;;;;;6775961;26;20512;-65
2024/04/17 13:54:37;;;;;;;2.30;2.20;;;12.50;52.30;;;;;;6774034;26;20397;-64
2024/04/17 13:57:40;;;;;;;2.17;2.00;;;12.80;51.00;;;;;;6774521;26;20253;-64
2024/04/17 14:00:41;;;;;;;2.10;2.00;;;12.90;51.20;;;;;;6774573;26;20558;-63
2024/04/17 14:03:44;;;;;;;2.13;2.03;;;12.40;52.00;;;;;;6775309;26;20507;-65
2024/04/17 14:06:46;;;;;;;2.27;2.07;;;12.30;52.40;;;;;;6774743;26;20537;-65
2024/04/17 14:09:50;;;;;;;2.27;2.13;;;12.30;53.30;;;;;;6772671;26;20515;-63
2024/04/17 14:12:53;;;;;;;1.70;1.60;;;12.00;54.40;;;;;;6772352;26;20385;-63
2024/04/17 14:15:56;;;;;;;3.17;1.87;;;12.20;50.50;;;;;;6775122;26;20282;-64
2024/04/17 14:18:58;;;;;;;1.87;1.60;;;12.10;51.50;;;;;;6778558;26;20456;-63
2024/04/17 14:22:00;;;;;;;2.60;2.10;;;12.30;51.70;;;;;;6774068;26;20456;-63
2024/04/17 14:25:02;;;;;;;1.93;1.83;;;12.30;51.10;;;;;;6774134;26;20511;-63
2024/04/17 14:28:04;;;;;;;2.67;2.57;;;12.60;52.50;;;;;;6774057;26;20499;-64
2024/04/17 14:31:07;;;;;;;2.37;2.20;;;12.70;52.50;;;;;;6773974;26;20452;-63
2024/04/17 14:34:09;;;;;;;5.43;2.43;;;12.90;50.80;;;;;;6774620;26;20507;-63
2024/04/17 14:37:11;;;;;;;2.57;2.37;;;13.00;51.70;;;;;;6774619;26;20884;-64
2024/04/17 14:40:13;;;;;;;2.30;2.10;;;12.80;50.10;;;;;;6774512;26;20570;-63
2024/04/17 14:43:15;;;;;;;3.57;2.60;;;12.80;51.60;;;;;;6775781;26;20452;-63
2024/04/17 14:46:17;;;;;;;6.43;2.80;;;12.60;52.20;;;;;;6773978;26;20455;-64
2024/04/17 14:49:19;;;;;;;4.33;2.37;;;12.40;52.80;;;;;;6773998;26;21055;-64
2024/04/17 14:52:22;;;;;;;2.53;2.33;;;12.20;54.30;;;;;;6774472;26;20499;-64
2024/04/17 14:55:23;;;;;;;4.17;2.43;;;12.10;53.90;;;;;;6774043;26;20463;-65
2024/04/17 14:58:25;;;;;;;3.10;2.30;;;12.10;55.30;;;;;;6774898;26;20520;-64
2024/04/17 15:01:29;;;;;;;2.50;2.30;;;12.30;55.60;;;;;;6773647;26;20431;-64
2024/04/17 15:04:32;;;;;;;2.40;2.30;;;12.50;55.90;;;;;;6773467;26;20542;-63
2024/04/17 15:07:33;;;;;;;3.30;2.97;;;12.60;55.10;;;;;;6773732;26;20511;-64
2024/04/17 15:10:36;;;;;;;2.33;2.13;;;12.30;57.20;;;;;;6773333;26;20915;-64
2024/04/17 15:13:38;;;;;;;2.30;2.10;;;11.70;60.10;;;;;;6773208;26;20473;-63
2024/04/17 15:16:43;;;;;;;3.10;2.00;;;11.30;63.30;;;;;;6771555;26;20493;-63
2024/04/17 15:19:45;;;;;;;2.53;2.33;;;11.40;66.20;;;;;;6772809;26;20444;-63
2024/04/17 15:22:49;;;;;;;2.67;2.47;;;11.70;63.40;;;;;;6772599;26;20537;-64
2024/04/17 15:26:03;;;;;;;2.70;2.10;;;12.00;65.60;;;;;;6773022;26;20455;-63
2024/04/17 15:29:05;;;;;;;2.43;2.23;;;12.10;60.20;;;;;;6775020;26;20448;-64
2024/04/17 15:32:07;;;;;;;1.87;1.77;;;11.90;62.10;;;;;;6777647;26;20515;-64
2024/04/17 15:35:08;;;;;;;2.20;1.40;;;11.80;60.10;;;;;;6777971;26;20447;-64
2024/04/17 15:38:10;;;;;;;1.80;1.70;;;11.30;56.70;;;;;;6778096;26;20503;-63
2024/04/17 15:41:12;;;;;;;3.87;1.83;;;11.20;58.10;;;;;;6788155;26;20557;-64
2024/04/17 15:44:14;;;;;;;1.90;1.80;;;11.30;61.10;;;;;;6779490;26;20846;-62
2024/04/17 15:47:17;;;;;;;1.60;1.50;;;11.10;57.40;;;;;;6778798;26;20951;-64
2024/04/17 15:50:19;;;;;;;2.50;1.80;;;11.10;57.40;;;;;;6779307;26;20927;-65
2024/04/17 15:53:24;;;;;;;2.00;1.90;;;10.90;57.50;;;;;;6781526;26;20464;-63
2024/04/17 15:56:27;;;;;;;1.53;1.43;;;10.90;57.80;;;;;;6779582;26;20516;-63